Rockhurst, New York
Current Conditions -  °F | °C
As of 5:53 AM on Thursday 23 Oct 2014 (Local Time) from KGFL Reporting Station
Light Rain Light Rain  
Wind Chill: 44°   Ceiling: 3000
Heat Index: 47°   Visibility: 10mi
Dew Point: 43°   Wind: 7mph
Humidity: 86%   Direction: 350°N
Pressure: 29.9"   Gusts: NA
Location:  43.4773°N, 73.6433°W
Report Text: KGFL 230953Z AUTO 35006KT 10SM -RA FEW024 OVC030 08/06 A2990 RMK AO2 RAB04 SLP130 P0003 T00830061
Loading
Personal Weather Stations






























Interactive Weather Map
Tropical Storm Tracking
New forecast layout! Learn more

10-Day Weather Forecast

Advertisements
Track Severe Weather on mobile